createdAt,value
2018-06-13T00:00:17.391Z,60.00
2018-06-13T00:00:50.942Z,59.90
2018-06-13T00:01:24.521Z,59.50
2018-06-13T00:01:58.921Z,59.50
2018-06-13T00:02:33.091Z,59.60
2018-06-13T00:03:06.761Z,59.70
2018-06-13T00:03:40.584Z,60.00
2018-06-13T00:04:15.885Z,59.80
2018-06-13T00:04:54.883Z,59.70
2018-06-13T00:05:34.567Z,59.70
2018-06-13T00:06:11.389Z,60.00
2018-06-13T00:06:45.273Z,60.00
2018-06-13T00:07:32.861Z,60.00
2018-06-13T00:08:11.944Z,59.60
2018-06-13T00:08:48.499Z,59.60
2018-06-13T00:09:26.011Z,59.80
2018-06-13T00:10:04.670Z,60.20
2018-06-13T00:10:50.699Z,60.50
2018-06-13T00:11:27.567Z,60.40
2018-06-13T00:12:06.686Z,60.70
2018-06-13T00:12:49.666Z,61.20
2018-06-13T00:13:28.272Z,61.10
2018-06-13T00:14:23.519Z,60.90
2018-06-13T00:14:58.761Z,60.80
2018-06-13T00:15:35.893Z,60.90
2018-06-13T00:16:10.530Z,61.00
2018-06-13T00:16:44.138Z,61.10
2018-06-13T00:46:23.181Z,61.20
2018-06-13T00:47:16.065Z,61.50
2018-06-13T01:13:40.503Z,60.60
2018-06-13T01:33:35.729Z,61.30
2018-06-13T01:53:31.428Z,62.10
2018-06-13T02:04:49.927Z,61.20
2018-06-13T02:05:24.269Z,61.80
2018-06-13T02:06:01.099Z,62.50
2018-06-13T02:06:35.932Z,62.90
2018-06-13T02:07:16.338Z,63.10
2018-06-13T02:07:52.551Z,63.10
2018-06-13T02:08:26.708Z,63.00
2018-06-13T02:09:02.547Z,62.70
2018-06-13T02:09:37.300Z,62.90
2018-06-13T02:10:15.364Z,62.80
2018-06-13T02:10:51.523Z,62.80
2018-06-13T02:11:25.764Z,62.50
2018-06-13T02:12:01.834Z,63.00
2018-06-13T02:13:12.247Z,61.80
2018-06-13T02:13:54.332Z,62.20
2018-06-13T02:14:29.416Z,62.30
2018-06-13T02:15:08.083Z,62.30
2018-06-13T02:15:59.439Z,62.50
2018-06-13T02:16:37.391Z,62.40
2018-06-13T02:17:13.380Z,62.50
2018-06-13T02:17:53.199Z,62.40
2018-06-13T02:19:01.867Z,62.20
2018-06-13T02:19:35.405Z,61.90
2018-06-13T02:20:11.160Z,61.80
2018-06-13T02:20:49.509Z,61.80
2018-06-13T02:21:26.013Z,61.60
2018-06-13T02:22:02.699Z,61.60
2018-06-13T02:22:37.696Z,61.60
2018-06-13T02:23:14.325Z,61.40
2018-06-13T02:23:52.980Z,61.40
2018-06-13T02:24:29.701Z,61.20
2018-06-13T02:25:04.637Z,61.30
2018-06-13T02:25:42.257Z,61.20
2018-06-13T02:26:16.414Z,61.10
2018-06-13T02:26:51.098Z,61.20
2018-06-13T02:27:31.179Z,61.10
2018-06-13T02:28:04.739Z,61.20
2018-06-13T02:28:38.331Z,61.30
2018-06-13T02:29:11.940Z,61.40
2018-06-13T02:29:45.538Z,61.30
2018-06-13T02:30:19.092Z,61.00
2018-06-13T02:30:52.726Z,61.00
2018-06-13T02:31:26.317Z,61.20
2018-06-13T02:32:00.004Z,61.30
2018-06-13T02:32:34.844Z,61.30
2018-06-13T02:33:09.198Z,61.60
2018-06-13T02:33:42.767Z,61.90
2018-06-13T02:34:16.380Z,61.80
2018-06-13T02:34:49.982Z,61.50
2018-06-13T02:35:23.631Z,61.30
2018-06-13T02:35:57.444Z,61.30
2018-06-13T02:36:31.158Z,61.50
2018-06-13T02:37:06.343Z,61.50
2018-06-13T02:37:39.949Z,61.30
2018-06-13T02:38:13.590Z,61.20
2018-06-13T02:38:47.127Z,61.20
2018-06-13T02:39:21.481Z,61.20
2018-06-13T02:39:55.092Z,61.00
2018-06-13T02:40:29.252Z,61.00
2018-06-13T02:41:02.791Z,61.10
2018-06-13T02:41:37.008Z,61.30
2018-06-13T02:42:10.928Z,61.30
2018-06-13T02:42:44.544Z,61.30
2018-06-13T02:43:18.679Z,61.60
2018-06-13T02:43:52.215Z,61.50
2018-06-13T02:44:26.972Z,61.50
2018-06-13T02:45:00.532Z,61.40
2018-06-13T02:45:34.785Z,61.30
2018-06-13T02:46:09.558Z,61.40
2018-06-13T02:46:43.129Z,61.30
2018-06-13T02:47:16.668Z,61.50
2018-06-13T02:47:51.115Z,61.50
2018-06-13T02:48:26.201Z,61.50
2018-06-13T02:48:59.717Z,61.50
2018-06-13T02:49:33.388Z,61.40
2018-06-13T02:50:08.790Z,61.20
2018-06-13T02:50:44.088Z,61.00
2018-06-13T02:51:18.321Z,60.80
2018-06-13T02:51:52.137Z,60.80
2018-06-13T02:52:25.765Z,61.00
2018-06-13T02:52:59.439Z,61.20
2018-06-13T02:53:34.047Z,61.20
2018-06-13T02:54:09.178Z,61.20
2018-06-13T02:54:43.707Z,61.10
2018-06-13T02:55:17.961Z,61.10
2018-06-13T02:55:51.731Z,61.00
2018-06-13T02:56:26.175Z,60.90
2018-06-13T02:56:59.898Z,61.00
2018-06-13T02:57:33.437Z,61.10
2018-06-13T02:58:08.050Z,61.10
2018-06-13T02:58:41.814Z,60.90
2018-06-13T02:59:15.410Z,60.90
2018-06-13T02:59:49.410Z,61.20
2018-06-13T03:00:23.040Z,61.10
2018-06-13T03:00:57.445Z,61.20
2018-06-13T03:01:31.031Z,61.10
2018-06-13T03:02:05.956Z,61.20
2018-06-13T03:02:39.510Z,61.00
2018-06-13T03:03:14.334Z,61.00
2018-06-13T03:03:48.181Z,60.90
2018-06-13T03:04:22.740Z,60.80
2018-06-13T03:04:57.230Z,60.40
2018-06-13T03:05:30.892Z,60.80
2018-06-13T03:06:04.472Z,61.10
2018-06-13T03:06:38.200Z,61.10
2018-06-13T03:07:12.293Z,60.90
2018-06-13T03:07:45.935Z,60.70
2018-06-13T03:08:20.184Z,60.70
2018-06-13T03:08:54.150Z,60.90
2018-06-13T03:09:28.320Z,61.00
2018-06-13T03:10:03.561Z,61.00
2018-06-13T03:10:39.962Z,60.90
2018-06-13T03:11:22.576Z,60.70
2018-06-13T03:12:07.558Z,60.90
2018-06-13T03:12:52.455Z,60.90
2018-06-13T03:13:30.376Z,60.80
2018-06-13T03:14:49.234Z,60.90
2018-06-13T03:15:29.978Z,61.00
2018-06-13T03:16:07.376Z,61.10
2018-06-13T03:16:41.797Z,61.20
2018-06-13T03:17:58.443Z,61.70
2018-06-13T03:18:34.001Z,61.00
2018-06-13T03:19:10.280Z,61.20
2018-06-13T03:19:46.621Z,61.00
2018-06-13T03:20:23.329Z,61.90
2018-06-13T03:21:01.415Z,61.10
2018-06-13T03:21:36.798Z,61.20
2018-06-13T03:22:15.366Z,61.50
2018-06-13T03:22:51.668Z,61.50
2018-06-13T03:23:29.529Z,61.60
2018-06-13T03:24:05.970Z,61.70
2018-06-13T03:24:43.039Z,61.80
2018-06-13T03:25:25.587Z,61.90
2018-06-13T03:26:01.351Z,61.80
2018-06-13T03:26:39.172Z,61.50
2018-06-13T03:27:14.490Z,61.60
2018-06-13T03:27:50.309Z,61.50
2018-06-13T03:28:27.725Z,61.70
2018-06-13T03:29:03.872Z,61.60
2018-06-13T03:29:40.516Z,61.30
2018-06-13T03:30:18.025Z,61.30
2018-06-13T03:30:53.451Z,61.10
2018-06-13T03:31:31.321Z,61.50
2018-06-13T03:32:07.053Z,61.70
2018-06-13T03:32:56.001Z,61.70
2018-06-13T03:33:33.083Z,61.40
2018-06-13T03:34:06.762Z,61.70
2018-06-13T03:35:19.228Z,61.60
2018-06-13T03:36:34.442Z,61.80
2018-06-13T03:37:12.915Z,62.00
2018-06-13T03:37:48.595Z,62.00
2018-06-13T03:38:22.550Z,62.10
2018-06-13T03:38:59.199Z,62.10
2018-06-13T03:39:38.165Z,62.30
2018-06-13T03:40:11.726Z,62.50
2018-06-13T03:40:48.118Z,62.60
2018-06-13T03:41:27.642Z,62.40
2018-06-13T03:42:02.904Z,62.20
2018-06-13T03:42:37.402Z,62.40
2018-06-13T03:43:44.122Z,62.20
2018-06-13T03:44:17.664Z,62.40
2018-06-13T03:44:52.593Z,62.50
2018-06-13T03:45:26.123Z,62.40
2018-06-13T03:46:01.251Z,62.50
2018-06-13T03:46:34.878Z,62.80
2018-06-13T03:47:09.806Z,62.50
2018-06-13T03:47:43.343Z,62.40
2018-06-13T03:48:16.953Z,62.20
2018-06-13T03:48:50.588Z,62.10
2018-06-13T03:49:24.923Z,62.30
2018-06-13T03:49:59.463Z,62.10
2018-06-13T03:50:33.058Z,61.90
2018-06-13T03:51:06.897Z,61.90
2018-06-13T03:51:40.538Z,62.10
2018-06-13T03:52:14.055Z,62.40
2018-06-13T03:52:47.590Z,62.40
2018-06-13T03:53:21.139Z,62.40
2018-06-13T03:53:54.687Z,62.10
2018-06-13T03:54:28.201Z,62.00
2018-06-13T03:55:02.437Z,61.90
2018-06-13T03:55:35.966Z,62.00
2018-06-13T03:56:43.335Z,62.20
2018-06-13T03:57:17.531Z,62.30
2018-06-13T03:57:51.071Z,62.00
2018-06-13T03:58:26.052Z,61.80
2018-06-13T03:59:00.103Z,61.90
2018-06-13T03:59:33.704Z,62.20
2018-06-13T04:00:07.847Z,62.30
2018-06-13T04:00:41.396Z,62.30
2018-06-13T04:01:15.033Z,62.20
2018-06-13T04:01:48.654Z,62.20
2018-06-13T04:02:22.202Z,62.30
2018-06-13T04:02:55.761Z,62.40
2018-06-13T04:03:29.392Z,62.70
2018-06-13T04:04:03.015Z,62.70
2018-06-13T04:04:36.556Z,62.50
2018-06-13T04:05:10.845Z,62.40
2018-06-13T04:05:44.839Z,62.40
2018-06-13T04:06:19.175Z,62.20
2018-06-13T04:06:52.780Z,62.30
2018-06-13T04:07:26.372Z,62.20
2018-06-13T04:08:00.587Z,62.40
2018-06-13T04:08:34.117Z,62.60
2018-06-13T04:09:41.249Z,62.20
2018-06-13T04:10:14.869Z,62.10
2018-06-13T04:10:49.180Z,62.10
2018-06-13T04:11:22.832Z,62.30
2018-06-13T04:11:57.135Z,62.10
2018-06-13T04:12:31.100Z,61.80
2018-06-13T04:13:04.712Z,61.60
2018-06-13T04:13:38.763Z,61.60
2018-06-13T04:14:12.336Z,62.30
2018-06-13T04:14:46.513Z,61.60
2018-06-13T04:15:20.092Z,61.80
2018-06-13T04:15:54.316Z,62.10
2018-06-13T04:16:27.856Z,62.50
2018-06-13T04:17:01.470Z,62.10
2018-06-13T04:17:35.051Z,62.10
2018-06-13T04:18:08.680Z,62.30
2018-06-13T04:18:42.175Z,62.80
2018-06-13T04:19:16.468Z,63.00
2018-06-13T04:19:50.766Z,62.80
2018-06-13T04:20:25.519Z,62.70
2018-06-13T04:21:00.863Z,62.60
2018-06-13T04:21:36.514Z,62.50
2018-06-13T04:22:10.183Z,62.30
2018-06-13T04:22:43.739Z,62.00
2018-06-13T04:23:17.340Z,61.90
2018-06-13T04:23:50.893Z,61.80
2018-06-13T04:24:24.403Z,61.80
2018-06-13T04:24:58.656Z,62.00
2018-06-13T04:25:32.191Z,61.80
2018-06-13T04:26:05.700Z,61.90
2018-06-13T04:26:39.248Z,62.00
2018-06-13T04:27:12.913Z,61.90
2018-06-13T04:27:46.464Z,61.70
2018-06-13T04:28:20.048Z,61.50
2018-06-13T04:28:53.616Z,61.60
2018-06-13T04:29:27.846Z,61.80
2018-06-13T04:30:01.490Z,61.90
2018-06-13T04:30:35.036Z,61.70
2018-06-13T04:31:08.628Z,61.70
2018-06-13T04:31:42.199Z,61.50
2018-06-13T04:32:15.839Z,61.50
2018-06-13T04:33:23.064Z,61.40
2018-06-13T04:33:57.360Z,61.60
2018-06-13T04:34:30.903Z,61.60
2018-06-13T04:35:04.542Z,61.50
2018-06-13T04:35:38.149Z,61.30
2018-06-13T04:36:11.774Z,61.30
2018-06-13T04:37:18.634Z,61.30
2018-06-13T04:37:52.222Z,61.60
2018-06-13T04:38:26.366Z,61.70
2018-06-13T04:38:59.980Z,61.80
2018-06-13T04:39:33.499Z,61.80
2018-06-13T04:40:07.065Z,61.70
2018-06-13T04:40:40.630Z,61.60
2018-06-13T04:41:14.212Z,61.70
2018-06-13T04:41:47.748Z,61.70
2018-06-13T04:42:21.299Z,61.60
2018-06-13T04:42:54.878Z,61.30
2018-06-13T04:43:28.455Z,61.20
2018-06-13T04:44:01.997Z,61.10
2018-06-13T04:44:35.500Z,60.80
2018-06-13T04:45:09.759Z,60.70
2018-06-13T04:45:43.290Z,60.70
2018-06-13T04:46:18.863Z,60.80
2018-06-13T04:46:52.923Z,60.70
2018-06-13T04:47:26.448Z,60.80
2018-06-13T04:48:00.544Z,60.80
2018-06-13T04:48:34.068Z,60.60
2018-06-13T04:49:07.720Z,60.40
2018-06-13T04:49:41.741Z,60.40
2018-06-13T04:50:15.339Z,60.50
2018-06-13T04:50:48.888Z,60.50
2018-06-13T04:51:22.435Z,60.50
2018-06-13T04:51:55.990Z,60.40
2018-06-13T04:52:29.568Z,60.30
2018-06-13T04:53:03.690Z,60.00
2018-06-13T04:53:37.239Z,59.90
2018-06-13T04:54:11.538Z,59.80
2018-06-13T04:54:45.696Z,59.80
2018-06-13T04:55:19.328Z,59.80
2018-06-13T04:55:53.488Z,59.70
2018-06-13T04:56:26.994Z,59.40
2018-06-13T04:57:00.558Z,59.50
2018-06-13T04:57:35.018Z,59.50
2018-06-13T04:58:08.546Z,59.40
2018-06-13T04:58:42.119Z,59.40
2018-06-13T04:59:15.640Z,59.30
2018-06-13T04:59:49.194Z,59.20
2018-06-13T05:00:22.697Z,59.30
2018-06-13T05:00:56.271Z,59.30
2018-06-13T05:01:29.883Z,59.20
2018-06-13T05:02:04.111Z,59.40
2018-06-13T05:02:38.475Z,59.60
2018-06-13T05:03:12.672Z,59.70
2018-06-13T05:03:46.238Z,59.70
2018-06-13T05:04:19.860Z,59.50
2018-06-13T05:04:54.797Z,59.30
2018-06-13T05:05:29.183Z,59.50
2018-06-13T05:06:02.798Z,59.50
2018-06-13T05:06:36.926Z,59.50
2018-06-13T05:07:11.262Z,59.50
2018-06-13T05:07:44.855Z,59.60
2018-06-13T05:08:18.367Z,59.70
2018-06-13T05:08:51.959Z,59.30
2018-06-13T05:09:25.563Z,59.10
2018-06-13T05:09:59.104Z,59.30
2018-06-13T05:11:06.008Z,59.30
2018-06-13T05:11:40.608Z,59.50
2018-06-13T05:12:14.198Z,59.10
2018-06-13T05:12:47.779Z,59.10
2018-06-13T05:13:21.386Z,59.40
2018-06-13T05:13:54.956Z,59.70
2018-06-13T05:14:28.557Z,59.60
2018-06-13T05:15:03.880Z,59.50
2018-06-13T05:15:37.454Z,59.40
2018-06-13T05:16:11.661Z,59.40
2018-06-13T05:16:45.193Z,59.40
2018-06-13T05:17:18.783Z,59.10
2018-06-13T05:17:52.526Z,59.10
2018-06-13T05:18:26.080Z,59.20
2018-06-13T05:19:00.386Z,59.00
2018-06-13T05:19:33.968Z,59.00
2018-06-13T05:20:08.137Z,59.00
2018-06-13T05:20:42.302Z,59.00
2018-06-13T05:21:16.424Z,58.80
2018-06-13T05:21:51.375Z,58.60
2018-06-13T05:22:24.943Z,58.80
2018-06-13T05:22:58.905Z,58.60
2018-06-13T05:23:32.471Z,58.40
2018-06-13T05:24:07.233Z,58.70
2018-06-13T05:24:40.789Z,58.90
2018-06-13T05:25:14.367Z,59.10
2018-06-13T05:25:47.952Z,59.30
2018-06-13T05:26:21.557Z,59.30
2018-06-13T05:26:55.199Z,59.10
2018-06-13T05:27:30.199Z,58.90
2018-06-13T05:28:03.764Z,59.40
2018-06-13T05:28:38.423Z,59.60
2018-06-13T05:29:12.650Z,59.30
2018-06-13T05:29:47.707Z,60.00
2018-06-13T05:30:21.298Z,59.30
2018-06-13T05:31:28.078Z,59.00
2018-06-13T05:32:01.900Z,59.30
2018-06-13T05:32:35.482Z,58.90
2018-06-13T05:33:09.020Z,58.70
2018-06-13T05:33:42.609Z,58.70
2018-06-13T05:34:16.698Z,59.90
2018-06-13T05:34:50.399Z,59.30
2018-06-13T05:35:57.252Z,59.20
2018-06-13T05:36:31.456Z,59.20
2018-06-13T05:37:05.416Z,59.80
2018-06-13T05:37:38.914Z,59.00
2018-06-13T05:38:12.494Z,59.00
2018-06-13T05:38:46.084Z,58.90
2018-06-13T05:39:19.668Z,58.50
2018-06-13T05:39:53.879Z,58.30
2018-06-13T05:40:28.056Z,58.60
2018-06-13T05:41:02.171Z,58.40
2018-06-13T05:41:36.371Z,58.40
2018-06-13T05:42:09.896Z,58.80
2018-06-13T05:43:16.736Z,59.30
2018-06-13T05:43:50.329Z,58.70
2018-06-13T05:46:20.604Z,58.90
2018-06-13T05:46:54.692Z,58.90
2018-06-13T05:47:28.251Z,59.00
2018-06-13T05:48:01.857Z,59.10
2018-06-13T05:48:35.998Z,58.70
2018-06-13T05:49:10.309Z,58.60
2018-06-13T05:49:43.901Z,58.60
2018-06-13T05:50:17.466Z,58.70
2018-06-13T05:50:51.069Z,58.80
2018-06-13T05:51:24.659Z,59.00
2018-06-13T05:51:58.529Z,59.20
2018-06-13T05:52:32.095Z,59.20
2018-06-13T05:53:06.173Z,59.20
2018-06-13T05:53:39.778Z,59.30
2018-06-13T05:54:14.075Z,58.90
2018-06-13T05:54:47.693Z,59.00
2018-06-13T05:55:22.880Z,59.20
2018-06-13T05:55:56.636Z,59.10
2018-06-13T05:56:30.219Z,59.20
2018-06-13T05:57:03.865Z,59.10
2018-06-13T05:57:38.893Z,59.00
2018-06-13T05:58:13.371Z,59.30
2018-06-13T05:58:49.288Z,59.70
2018-06-13T05:59:23.556Z,58.90
2018-06-13T05:59:58.440Z,59.00
2018-06-13T06:00:32.131Z,58.90
2018-06-13T06:01:05.770Z,58.90
2018-06-13T06:01:39.569Z,58.70
2018-06-13T06:02:13.246Z,58.50
2018-06-13T06:02:46.922Z,58.50
2018-06-13T06:03:20.550Z,58.60
2018-06-13T06:03:54.956Z,58.60
2018-06-13T06:04:28.588Z,58.50
2018-06-13T06:05:04.089Z,58.40
2018-06-13T06:05:37.660Z,58.30
2018-06-13T06:06:11.424Z,58.60
2018-06-13T06:06:46.596Z,58.70
2018-06-13T06:07:20.965Z,58.60
2018-06-13T06:07:54.737Z,58.70
2018-06-13T06:08:28.357Z,59.00
2018-06-13T06:09:02.571Z,59.00
2018-06-13T06:09:36.847Z,59.00
2018-06-13T06:10:10.497Z,58.80
2018-06-13T06:10:44.778Z,58.90
2018-06-13T06:11:18.778Z,58.90
2018-06-13T06:11:53.727Z,58.70
2018-06-13T06:12:28.159Z,58.60
2018-06-13T06:13:01.774Z,58.50
2018-06-13T06:13:35.951Z,58.50
2018-06-13T06:14:09.510Z,59.20
2018-06-13T06:14:43.806Z,58.60
2018-06-13T06:15:17.436Z,58.60
2018-06-13T06:15:51.396Z,58.70
2018-06-13T06:16:24.955Z,58.80
2018-06-13T06:16:58.552Z,58.90
2018-06-13T06:17:32.151Z,58.40
2018-06-13T06:18:06.412Z,58.10
2018-06-13T06:18:40.827Z,58.30
2018-06-13T06:19:15.859Z,58.60
2018-06-13T06:19:49.480Z,59.00
2018-06-13T06:20:28.652Z,58.90
2018-06-13T06:21:02.201Z,59.00
2018-06-13T06:21:35.785Z,59.50
2018-06-13T06:22:10.164Z,59.60
2018-06-13T06:22:44.368Z,59.70
2018-06-13T06:23:17.991Z,59.60
2018-06-13T06:23:51.589Z,59.40
2018-06-13T06:24:25.154Z,59.40
2018-06-13T06:25:32.603Z,59.00
2018-06-13T06:26:06.367Z,59.10
2018-06-13T06:26:39.884Z,59.30
2018-06-13T06:27:13.383Z,59.20
2018-06-13T06:27:47.012Z,59.10
2018-06-13T06:28:20.640Z,59.10
2018-06-13T06:28:54.816Z,58.70
2018-06-13T06:29:28.484Z,58.30
2018-06-13T06:30:02.249Z,58.60
2018-06-13T06:30:36.777Z,58.60
2018-06-13T06:31:11.112Z,58.60
2018-06-13T06:31:44.648Z,58.70
2018-06-13T06:32:18.225Z,58.80
2018-06-13T06:32:51.755Z,58.90
2018-06-13T06:33:25.462Z,58.70
2018-06-13T06:33:59.007Z,58.40
2018-06-13T06:34:35.303Z,58.30
2018-06-13T06:35:08.888Z,58.20
2018-06-13T06:35:43.401Z,58.30
2018-06-13T06:36:16.966Z,58.50
2018-06-13T06:36:50.494Z,58.60
2018-06-13T06:37:24.667Z,58.90
2018-06-13T06:37:58.964Z,59.10
2018-06-13T06:38:32.539Z,58.80
2018-06-13T06:39:08.803Z,58.30
2018-06-13T06:39:42.973Z,58.10
2018-06-13T06:40:17.029Z,57.90
2018-06-13T06:40:50.607Z,57.50
2018-06-13T06:41:24.112Z,57.40
2018-06-13T06:41:58.393Z,57.40
2018-06-13T06:42:31.968Z,57.40
2018-06-13T06:43:05.765Z,58.20
2018-06-13T06:43:39.383Z,57.30
2018-06-13T06:44:12.945Z,57.10
2018-06-13T06:44:46.477Z,56.90
2018-06-13T06:45:20.659Z,56.90
2018-06-13T06:45:54.176Z,57.00
2018-06-13T06:46:27.839Z,57.10
2018-06-13T06:47:01.710Z,56.80
2018-06-13T06:47:35.970Z,56.90
2018-06-13T06:48:09.523Z,57.20
2018-06-13T06:48:43.733Z,57.30
2018-06-13T06:49:17.313Z,56.80
2018-06-13T06:49:51.469Z,56.50
2018-06-13T06:50:25.116Z,56.40
2018-06-13T06:50:58.767Z,56.10
2018-06-13T06:51:32.341Z,56.00
2018-06-13T06:52:05.943Z,56.10
2018-06-13T06:52:40.028Z,56.10
2018-06-13T06:53:13.641Z,56.30
2018-06-13T06:53:47.171Z,56.30
2018-06-13T06:54:20.944Z,56.30
2018-06-13T06:54:54.575Z,56.20
2018-06-13T06:55:29.667Z,56.20
2018-06-13T06:56:03.501Z,56.10
2018-06-13T06:56:38.509Z,56.20
2018-06-13T06:57:13.120Z,56.40
2018-06-13T06:57:46.706Z,56.60
2018-06-13T06:58:20.329Z,56.50
2018-06-13T06:58:54.273Z,56.50
2018-06-13T06:59:28.005Z,56.30
2018-06-13T07:00:01.660Z,56.20
2018-06-13T07:01:08.589Z,56.30
2018-06-13T07:01:42.149Z,56.40
2018-06-13T07:02:15.728Z,56.60
2018-06-13T07:02:49.309Z,56.60
2018-06-13T07:03:22.911Z,56.20
2018-06-13T07:03:56.557Z,56.50
2018-06-13T07:04:30.152Z,56.60
2018-06-13T07:05:03.819Z,56.60
2018-06-13T07:05:37.332Z,56.80
2018-06-13T07:06:10.891Z,56.40
2018-06-13T07:06:45.110Z,56.40
2018-06-13T07:07:18.722Z,56.40
2018-06-13T07:07:52.534Z,56.60
2018-06-13T07:08:26.121Z,56.50
2018-06-13T07:09:00.210Z,56.50
2018-06-13T07:09:33.803Z,56.30
2018-06-13T07:10:08.475Z,56.10
2018-06-13T07:10:42.085Z,56.00
2018-06-13T07:11:16.351Z,56.20
2018-06-13T07:11:49.955Z,56.50
2018-06-13T07:12:24.223Z,56.40
2018-06-13T07:12:57.803Z,56.20
2018-06-13T07:13:31.403Z,56.10
2018-06-13T07:14:05.364Z,56.00
2018-06-13T07:14:39.805Z,55.90
2018-06-13T07:15:13.393Z,55.60
2018-06-13T07:15:47.702Z,55.60
2018-06-13T07:16:22.020Z,55.80
2018-06-13T07:16:55.542Z,56.10
2018-06-13T07:17:29.108Z,55.80
2018-06-13T07:18:03.400Z,55.50
2018-06-13T07:18:36.960Z,55.50
2018-06-13T07:19:10.663Z,55.50
2018-06-13T07:19:44.216Z,55.70
2018-06-13T07:20:18.045Z,55.90
2018-06-13T07:20:52.128Z,55.30
2018-06-13T07:21:27.075Z,55.30
2018-06-13T07:22:00.672Z,55.50
2018-06-13T07:22:34.237Z,55.70
2018-06-13T07:23:07.836Z,55.30
2018-06-13T07:23:42.075Z,55.00
2018-06-13T07:24:15.640Z,55.20
2018-06-13T07:24:49.162Z,55.20
2018-06-13T07:25:22.768Z,55.20
2018-06-13T07:25:56.324Z,55.20
2018-06-13T07:26:29.836Z,55.10
2018-06-13T07:27:03.366Z,55.00
2018-06-13T07:27:37.041Z,55.00
2018-06-13T07:28:11.320Z,54.90
2018-06-13T07:28:44.829Z,54.70
2018-06-13T07:29:19.143Z,54.60
2018-06-13T07:29:52.750Z,54.50
2018-06-13T07:30:26.318Z,54.70
2018-06-13T07:30:59.911Z,54.60
2018-06-13T07:31:33.972Z,54.50
2018-06-13T07:32:07.574Z,54.40
2018-06-13T07:32:41.225Z,54.60
2018-06-13T07:33:14.799Z,54.50
2018-06-13T07:33:48.531Z,54.30
2018-06-13T07:34:22.484Z,54.10
2018-06-13T07:34:56.670Z,54.20
2018-06-13T07:35:31.030Z,54.20
2018-06-13T07:36:05.338Z,54.20
2018-06-13T07:36:39.275Z,54.10
2018-06-13T07:37:12.821Z,54.30
2018-06-13T07:37:47.376Z,54.30
2018-06-13T07:38:20.933Z,54.20
2018-06-13T07:38:54.506Z,54.40
2018-06-13T07:39:28.094Z,54.70
2018-06-13T07:40:03.073Z,54.80
2018-06-13T07:40:37.002Z,54.90
2018-06-13T07:41:12.757Z,55.10
2018-06-13T07:41:46.843Z,55.30
2018-06-13T07:42:22.378Z,55.40
2018-06-13T07:42:55.908Z,55.30
2018-06-13T07:43:29.470Z,55.50
2018-06-13T07:44:03.068Z,55.70
2018-06-13T07:44:37.708Z,55.80
2018-06-13T07:45:44.579Z,55.40
2018-06-13T07:46:18.927Z,55.10
2018-06-13T07:46:52.487Z,54.90
2018-06-13T07:47:26.067Z,54.80
2018-06-13T07:48:00.195Z,54.90
2018-06-13T07:48:33.711Z,54.90
2018-06-13T07:49:07.278Z,55.00
2018-06-13T07:49:40.904Z,55.00
2018-06-13T07:50:14.459Z,55.00
2018-06-13T07:50:48.550Z,55.00
2018-06-13T07:51:22.185Z,55.30
2018-06-13T07:51:55.787Z,55.30
2018-06-13T07:52:29.368Z,55.40
2018-06-13T07:53:03.003Z,55.50
2018-06-13T07:53:36.563Z,55.70
2018-06-13T07:54:10.180Z,55.70
2018-06-13T07:54:43.839Z,55.40
2018-06-13T07:55:17.486Z,55.50
2018-06-13T07:55:51.036Z,55.70
2018-06-13T07:56:24.586Z,56.00
2018-06-13T07:56:58.175Z,56.10
2018-06-13T07:57:31.771Z,56.20
2018-06-13T07:58:05.368Z,55.80
2018-06-13T07:58:38.933Z,55.30
2018-06-13T07:59:13.656Z,55.00
2018-06-13T07:59:47.848Z,55.70
2018-06-13T08:00:21.494Z,55.00
2018-06-13T08:00:55.043Z,55.20
2018-06-13T08:01:28.583Z,55.10
2018-06-13T08:02:02.198Z,55.20
2018-06-13T08:02:35.727Z,55.10
2018-06-13T08:03:09.365Z,55.70
2018-06-13T08:03:42.935Z,54.80
2018-06-13T08:04:16.535Z,54.70
2018-06-13T08:04:50.088Z,55.60
2018-06-13T08:05:23.797Z,55.00
2018-06-13T08:05:57.327Z,55.10
2018-06-13T08:06:30.914Z,55.10
2018-06-13T08:07:04.509Z,55.10
2018-06-13T08:07:38.830Z,54.80
2018-06-13T08:08:12.400Z,54.70
2018-06-13T08:09:20.399Z,54.80
2018-06-13T08:09:53.926Z,54.80
2018-06-13T08:10:27.487Z,54.90
2018-06-13T08:11:01.583Z,54.80
2018-06-13T08:11:36.046Z,54.50
2018-06-13T08:12:09.635Z,54.50
2018-06-13T08:12:43.167Z,54.40
2018-06-13T08:13:16.786Z,54.40
2018-06-13T08:13:50.423Z,54.20
2018-06-13T08:14:25.369Z,54.80
2018-06-13T08:14:59.557Z,54.20
2018-06-13T08:15:33.253Z,54.40
2018-06-13T08:16:06.867Z,54.40
2018-06-13T08:16:40.380Z,54.40
2018-06-13T08:17:14.454Z,54.30
2018-06-13T08:17:49.040Z,54.00
2018-06-13T08:18:23.606Z,54.30
2018-06-13T08:18:57.748Z,54.50
2018-06-13T08:19:32.090Z,54.30
2018-06-13T08:20:06.176Z,54.50
2018-06-13T08:20:39.732Z,54.70
2018-06-13T08:21:14.081Z,54.50
2018-06-13T08:21:48.632Z,54.40
2018-06-13T08:22:22.280Z,54.20
2018-06-13T08:22:56.931Z,54.20
2018-06-13T08:23:31.062Z,54.30
2018-06-13T08:24:04.671Z,54.40
2018-06-13T08:24:49.368Z,54.40
2018-06-13T08:25:23.301Z,54.50
2018-06-13T08:25:56.877Z,54.40
2018-06-13T08:26:30.476Z,55.30
2018-06-13T08:27:04.141Z,54.50
2018-06-13T08:28:15.413Z,54.30
2018-06-13T08:28:49.234Z,54.20
2018-06-13T08:29:23.737Z,54.00
2018-06-13T08:29:57.325Z,53.70
2018-06-13T08:30:32.543Z,53.70
2018-06-13T08:31:06.639Z,53.70
2018-06-13T08:31:40.778Z,53.80
2018-06-13T08:32:15.362Z,53.80
2018-06-13T08:32:49.695Z,53.60
2018-06-13T08:33:23.587Z,53.50
2018-06-13T08:33:57.966Z,53.70
2018-06-13T08:34:32.316Z,54.00
2018-06-13T08:35:06.475Z,54.20
2018-06-13T08:35:41.726Z,54.20
2018-06-13T08:36:16.649Z,54.20
2018-06-13T08:36:51.355Z,54.20
2018-06-13T08:37:26.865Z,53.90
2018-06-13T08:38:02.282Z,53.80
2018-06-13T08:38:37.330Z,53.90
2018-06-13T08:39:12.685Z,53.90
2018-06-13T08:39:47.537Z,53.90
2018-06-13T08:40:22.363Z,54.00
2018-06-13T08:40:55.921Z,54.00
2018-06-13T08:42:06.599Z,54.10
2018-06-13T08:43:16.451Z,53.90
2018-06-13T08:43:51.090Z,54.00
2018-06-13T08:44:26.219Z,53.90
2018-06-13T08:45:01.158Z,54.10
2018-06-13T08:45:34.809Z,54.00
2018-06-13T08:46:09.235Z,53.90
2018-06-13T08:46:43.857Z,53.90
2018-06-13T08:47:19.618Z,53.80
2018-06-13T08:47:55.401Z,53.80
2018-06-13T08:48:30.448Z,53.90
2018-06-13T08:49:04.604Z,53.50
2018-06-13T08:49:40.197Z,53.70
2018-06-13T08:50:15.184Z,54.10
2018-06-13T08:50:50.662Z,54.30
2018-06-13T08:51:26.156Z,54.40
2018-06-13T08:52:00.646Z,54.60
2018-06-13T08:52:36.000Z,54.60
2018-06-13T08:53:10.466Z,54.60
2018-06-13T08:53:45.257Z,54.80
2018-06-13T08:54:20.636Z,54.80
2018-06-13T08:54:55.249Z,54.80
2018-06-13T08:55:35.718Z,54.40
2018-06-13T08:56:09.934Z,54.20
2018-06-13T08:56:44.166Z,53.80
2018-06-13T08:57:18.648Z,53.80
2018-06-13T08:57:52.251Z,53.70
2018-06-13T08:58:26.684Z,53.80
2018-06-13T08:59:03.705Z,54.00
2018-06-13T08:59:37.240Z,53.80
2018-06-13T09:00:45.485Z,53.60
2018-06-13T09:01:21.048Z,53.40
2018-06-13T09:01:55.126Z,53.30
2018-06-13T09:02:29.508Z,53.40
2018-06-13T09:03:03.895Z,53.30
2018-06-13T09:03:37.494Z,53.40
2018-06-13T09:04:11.828Z,53.50
2018-06-13T09:04:46.529Z,53.20
2018-06-13T09:05:20.648Z,53.40
2018-06-13T09:05:55.583Z,53.60
2018-06-13T09:06:29.805Z,53.90
2018-06-13T09:07:37.153Z,54.40
2018-06-13T09:08:11.370Z,53.80
2018-06-13T09:08:45.395Z,53.60
2018-06-13T09:09:19.824Z,53.60
2018-06-13T09:09:53.385Z,53.10
2018-06-13T09:11:01.215Z,53.10
2018-06-13T09:11:35.530Z,53.20
2018-06-13T09:12:10.027Z,53.10
2018-06-13T09:12:44.073Z,53.30
2018-06-13T09:13:17.644Z,53.10
2018-06-13T09:13:52.023Z,53.00
2018-06-13T09:14:26.118Z,53.10
2018-06-13T09:15:01.468Z,53.20
2018-06-13T09:15:35.306Z,53.00
2018-06-13T09:16:09.028Z,53.30
2018-06-13T09:16:43.132Z,52.60
2018-06-13T09:17:17.017Z,53.00
2018-06-13T09:17:51.268Z,53.30
2018-06-13T09:18:25.229Z,53.50
2018-06-13T09:18:59.379Z,53.70
2018-06-13T09:19:33.335Z,53.60
2018-06-13T09:20:07.713Z,53.50
2018-06-13T09:20:41.725Z,53.80
2018-06-13T09:21:15.340Z,53.90
2018-06-13T09:21:48.947Z,53.90
2018-06-13T09:22:22.741Z,53.80
2018-06-13T09:22:57.909Z,54.00
2018-06-13T09:23:31.813Z,53.90
2018-06-13T09:24:06.659Z,53.50
2018-06-13T09:24:40.513Z,53.70
2018-06-13T09:25:15.230Z,53.80